sensor_id;sensor_type;location;lat;lon;timestamp;P1;durP1;ratioP1;P2;durP2;ratioP2
50213;SDS011;36103;54.176;12.070;2022-10-26T00:00:50;2.50;;;1.80;;
50213;SDS011;36103;54.176;12.070;2022-10-26T00:01:51;2.00;;;1.40;;
50213;SDS011;36103;54.176;12.070;2022-10-26T00:02:52;2.00;;;1.57;;
50213;SDS011;36103;54.176;12.070;2022-10-26T00:03:55;3.17;;;1.83;;
50213;SDS011;36103;54.176;12.070;2022-10-26T00:04:55;2.50;;;1.80;;
50213;SDS011;36103;54.176;12.070;2022-10-26T00:06:02;1.77;;;1.40;;
50213;SDS011;36103;54.176;12.070;2022-10-26T00:07:04;1.77;;;1.40;;
50213;SDS011;36103;54.176;12.070;2022-10-26T00:08:05;2.57;;;2.00;;
50213;SDS011;36103;54.176;12.070;2022-10-26T00:09:06;2.37;;;1.67;;
50213;SDS011;36103;54.176;12.070;2022-10-26T00:10:07;2.67;;;1.67;;
50213;SDS011;36103;54.176;12.070;2022-10-26T00:11:08;3.37;;;1.60;;
50213;SDS011;36103;54.176;12.070;2022-10-26T00:12:10;3.33;;;1.53;;
50213;SDS011;36103;54.176;12.070;2022-10-26T00:13:11;2.37;;;1.90;;
50213;SDS011;36103;54.176;12.070;2022-10-26T00:14:13;2.13;;;1.90;;
50213;SDS011;36103;54.176;12.070;2022-10-26T00:15:13;2.00;;;1.50;;
50213;SDS011;36103;54.176;12.070;2022-10-26T00:16:15;2.33;;;1.70;;
50213;SDS011;36103;54.176;12.070;2022-10-26T00:17:17;2.00;;;1.60;;
50213;SDS011;36103;54.176;12.070;2022-10-26T00:18:19;2.57;;;1.83;;
50213;SDS011;36103;54.176;12.070;2022-10-26T00:19:19;1.90;;;1.50;;
50213;SDS011;36103;54.176;12.070;2022-10-26T00:20:21;1.93;;;1.50;;
50213;SDS011;36103;54.176;12.070;2022-10-26T00:21:23;3.03;;;1.77;;
50213;SDS011;36103;54.176;12.070;2022-10-26T00:22:24;2.50;;;1.50;;
50213;SDS011;36103;54.176;12.070;2022-10-26T00:23:25;2.10;;;1.60;;
50213;SDS011;36103;54.176;12.070;2022-10-26T00:24:26;2.10;;;1.50;;
50213;SDS011;36103;54.176;12.070;2022-10-26T00:25:27;2.20;;;1.70;;
50213;SDS011;36103;54.176;12.070;2022-10-26T00:26:28;2.57;;;1.63;;
50213;SDS011;36103;54.176;12.070;2022-10-26T00:27:30;2.47;;;1.70;;
50213;SDS011;36103;54.176;12.070;2022-10-26T00:28:31;1.87;;;1.33;;
50213;SDS011;36103;54.176;12.070;2022-10-26T00:29:33;1.70;;;1.47;;
50213;SDS011;36103;54.176;12.070;2022-10-26T00:30:37;1.97;;;1.50;;
50213;SDS011;36103;54.176;12.070;2022-10-26T00:31:38;1.67;;;1.30;;
50213;SDS011;36103;54.176;12.070;2022-10-26T00:32:39;4.57;;;1.50;;
50213;SDS011;36103;54.176;12.070;2022-10-26T00:33:40;3.43;;;1.40;;
50213;SDS011;36103;54.176;12.070;2022-10-26T00:34:41;2.50;;;1.40;;
50213;SDS011;36103;54.176;12.070;2022-10-26T00:35:42;1.93;;;1.53;;
50213;SDS011;36103;54.176;12.070;2022-10-26T00:36:44;2.73;;;1.50;;
50213;SDS011;36103;54.176;12.070;2022-10-26T00:37:46;1.77;;;1.50;;
50213;SDS011;36103;54.176;12.070;2022-10-26T00:38:47;1.80;;;1.40;;
50213;SDS011;36103;54.176;12.070;2022-10-26T00:39:49;2.27;;;1.73;;
50213;SDS011;36103;54.176;12.070;2022-10-26T00:40:49;2.20;;;1.40;;
50213;SDS011;36103;54.176;12.070;2022-10-26T00:41:51;1.50;;;1.40;;
50213;SDS011;36103;54.176;12.070;2022-10-26T00:42:51;3.67;;;1.83;;
50213;SDS011;36103;54.176;12.070;2022-10-26T00:43:52;2.73;;;1.70;;
50213;SDS011;36103;54.176;12.070;2022-10-26T00:44:55;1.77;;;1.60;;
50213;SDS011;36103;54.176;12.070;2022-10-26T00:45:58;2.23;;;1.50;;
50213;SDS011;36103;54.176;12.070;2022-10-26T00:46:59;1.87;;;1.40;;
50213;SDS011;36103;54.176;12.070;2022-10-26T00:48:01;1.60;;;1.50;;
50213;SDS011;36103;54.176;12.070;2022-10-26T00:49:03;3.03;;;1.70;;
50213;SDS011;36103;54.176;12.070;2022-10-26T00:50:11;2.00;;;1.53;;
50213;SDS011;36103;54.176;12.070;2022-10-26T00:51:16;1.73;;;1.43;;
50213;SDS011;36103;54.176;12.070;2022-10-26T00:52:22;1.67;;;1.27;;
50213;SDS011;36103;54.176;12.070;2022-10-26T00:53:23;2.30;;;1.33;;
50213;SDS011;36103;54.176;12.070;2022-10-26T00:54:24;2.63;;;1.40;;
50213;SDS011;36103;54.176;12.070;2022-10-26T00:55:26;3.53;;;1.90;;
50213;SDS011;36103;54.176;12.070;2022-10-26T00:56:29;2.20;;;1.37;;
50213;SDS011;36103;54.176;12.070;2022-10-26T00:57:30;2.80;;;1.57;;
50213;SDS011;36103;54.176;12.070;2022-10-26T00:58:32;2.07;;;1.50;;
50213;SDS011;36103;54.176;12.070;2022-10-26T00:59:33;1.83;;;1.17;;
50213;SDS011;36103;54.176;12.070;2022-10-26T01:00:35;2.73;;;1.70;;
50213;SDS011;36103;54.176;12.070;2022-10-26T01:01:37;1.40;;;1.30;;
50213;SDS011;36103;54.176;12.070;2022-10-26T01:02:39;1.40;;;1.27;;
50213;SDS011;36103;54.176;12.070;2022-10-26T01:03:41;1.90;;;1.40;;
50213;SDS011;36103;54.176;12.070;2022-10-26T01:04:43;2.13;;;1.50;;
50213;SDS011;36103;54.176;12.070;2022-10-26T01:05:45;2.20;;;1.20;;
50213;SDS011;36103;54.176;12.070;2022-10-26T01:06:47;2.03;;;1.47;;
50213;SDS011;36103;54.176;12.070;2022-10-26T01:07:49;1.43;;;1.23;;
50213;SDS011;36103;54.176;12.070;2022-10-26T01:08:51;2.17;;;1.40;;
50213;SDS011;36103;54.176;12.070;2022-10-26T01:09:52;1.80;;;1.50;;
50213;SDS011;36103;54.176;12.070;2022-10-26T01:10:53;1.87;;;1.30;;
50213;SDS011;36103;54.176;12.070;2022-10-26T01:11:55;1.93;;;1.50;;
50213;SDS011;36103;54.176;12.070;2022-10-26T01:12:57;1.67;;;1.23;;
50213;SDS011;36103;54.176;12.070;2022-10-26T01:13:58;2.13;;;1.23;;
50213;SDS011;36103;54.176;12.070;2022-10-26T01:15:00;1.60;;;1.33;;
50213;SDS011;36103;54.176;12.070;2022-10-26T01:16:11;1.90;;;1.40;;
50213;SDS011;36103;54.176;12.070;2022-10-26T01:17:32;2.07;;;1.50;;
50213;SDS011;36103;54.176;12.070;2022-10-26T01:18:39;1.73;;;1.30;;
50213;SDS011;36103;54.176;12.070;2022-10-26T01:21:25;2.20;;;1.43;;
50213;SDS011;36103;54.176;12.070;2022-10-26T01:22:38;1.70;;;1.60;;
50213;SDS011;36103;54.176;12.070;2022-10-26T01:23:47;1.90;;;1.63;;
50213;SDS011;36103;54.176;12.070;2022-10-26T01:25:00;2.33;;;1.40;;
50213;SDS011;36103;54.176;12.070;2022-10-26T01:26:07;1.83;;;1.33;;
50213;SDS011;36103;54.176;12.070;2022-10-26T01:27:19;1.60;;;1.50;;
50213;SDS011;36103;54.176;12.070;2022-10-26T01:28:27;2.27;;;1.40;;
50213;SDS011;36103;54.176;12.070;2022-10-26T01:31:14;1.27;;;1.10;;
50213;SDS011;36103;54.176;12.070;2022-10-26T01:32:20;2.30;;;1.50;;
50213;SDS011;36103;54.176;12.070;2022-10-26T01:33:27;1.57;;;1.40;;
50213;SDS011;36103;54.176;12.070;2022-10-26T01:34:32;1.70;;;1.23;;
50213;SDS011;36103;54.176;12.070;2022-10-26T01:35:34;1.97;;;1.63;;
50213;SDS011;36103;54.176;12.070;2022-10-26T01:36:39;1.67;;;1.33;;
50213;SDS011;36103;54.176;12.070;2022-10-26T01:37:43;1.60;;;1.30;;
50213;SDS011;36103;54.176;12.070;2022-10-26T01:38:50;1.63;;;1.33;;
50213;SDS011;36103;54.176;12.070;2022-10-26T01:39:57;1.63;;;1.20;;
50213;SDS011;36103;54.176;12.070;2022-10-26T01:41:03;2.30;;;1.30;;
50213;SDS011;36103;54.176;12.070;2022-10-26T01:42:08;1.30;;;1.20;;
50213;SDS011;36103;54.176;12.070;2022-10-26T01:43:10;1.60;;;1.07;;
50213;SDS011;36103;54.176;12.070;2022-10-26T01:44:15;1.53;;;1.30;;
50213;SDS011;36103;54.176;12.070;2022-10-26T01:45:21;1.27;;;1.17;;
50213;SDS011;36103;54.176;12.070;2022-10-26T01:46:22;1.17;;;1.07;;
50213;SDS011;36103;54.176;12.070;2022-10-26T01:47:23;1.60;;;1.27;;
50213;SDS011;36103;54.176;12.070;2022-10-26T01:48:26;1.80;;;1.10;;
50213;SDS011;36103;54.176;12.070;2022-10-26T01:49:28;1.73;;;1.30;;
50213;SDS011;36103;54.176;12.070;2022-10-26T01:50:32;3.63;;;1.47;;
50213;SDS011;36103;54.176;12.070;2022-10-26T01:51:33;1.50;;;1.17;;
50213;SDS011;36103;54.176;12.070;2022-10-26T01:52:35;1.87;;;1.17;;
50213;SDS011;36103;54.176;12.070;2022-10-26T01:53:36;1.63;;;1.13;;
50213;SDS011;36103;54.176;12.070;2022-10-26T01:54:42;1.90;;;1.37;;
50213;SDS011;36103;54.176;12.070;2022-10-26T01:55:44;1.20;;;1.10;;
50213;SDS011;36103;54.176;12.070;2022-10-26T01:56:48;1.60;;;1.50;;
50213;SDS011;36103;54.176;12.070;2022-10-26T01:57:51;1.20;;;1.10;;
50213;SDS011;36103;54.176;12.070;2022-10-26T01:59:00;1.33;;;1.23;;
50213;SDS011;36103;54.176;12.070;2022-10-26T02:00:06;2.10;;;1.50;;
50213;SDS011;36103;54.176;12.070;2022-10-26T02:01:12;1.50;;;1.20;;
50213;SDS011;36103;54.176;12.070;2022-10-26T02:02:37;1.93;;;1.30;;
50213;SDS011;36103;54.176;12.070;2022-10-26T02:03:44;1.77;;;1.40;;
50213;SDS011;36103;54.176;12.070;2022-10-26T02:04:53;1.93;;;1.60;;
50213;SDS011;36103;54.176;12.070;2022-10-26T02:06:03;2.80;;;1.43;;
50213;SDS011;36103;54.176;12.070;2022-10-26T02:07:08;1.17;;;1.07;;
50213;SDS011;36103;54.176;12.070;2022-10-26T02:08:23;1.63;;;1.20;;
50213;SDS011;36103;54.176;12.070;2022-10-26T02:09:28;1.93;;;1.43;;
50213;SDS011;36103;54.176;12.070;2022-10-26T02:10:38;1.50;;;1.30;;
50213;SDS011;36103;54.176;12.070;2022-10-26T02:11:44;1.33;;;1.20;;
50213;SDS011;36103;54.176;12.070;2022-10-26T02:12:49;2.23;;;1.30;;
50213;SDS011;36103;54.176;12.070;2022-10-26T02:13:56;1.60;;;1.30;;
50213;SDS011;36103;54.176;12.070;2022-10-26T02:15:08;1.80;;;1.30;;
50213;SDS011;36103;54.176;12.070;2022-10-26T02:16:17;1.57;;;1.27;;
50213;SDS011;36103;54.176;12.070;2022-10-26T02:17:22;1.70;;;1.50;;
50213;SDS011;36103;54.176;12.070;2022-10-26T02:18:28;1.30;;;1.00;;
50213;SDS011;36103;54.176;12.070;2022-10-26T02:19:32;2.27;;;1.50;;
50213;SDS011;36103;54.176;12.070;2022-10-26T02:20:33;1.50;;;1.40;;
50213;SDS011;36103;54.176;12.070;2022-10-26T02:21:37;3.33;;;1.40;;
50213;SDS011;36103;54.176;12.070;2022-10-26T02:22:41;1.70;;;1.20;;
50213;SDS011;36103;54.176;12.070;2022-10-26T02:23:44;1.30;;;1.20;;
50213;SDS011;36103;54.176;12.070;2022-10-26T02:24:46;2.43;;;1.40;;
50213;SDS011;36103;54.176;12.070;2022-10-26T02:25:50;2.13;;;1.30;;
50213;SDS011;36103;54.176;12.070;2022-10-26T02:26:55;1.70;;;1.40;;
50213;SDS011;36103;54.176;12.070;2022-10-26T02:27:58;1.27;;;1.17;;
50213;SDS011;36103;54.176;12.070;2022-10-26T02:29:01;1.50;;;1.30;;
50213;SDS011;36103;54.176;12.070;2022-10-26T02:30:06;1.23;;;1.13;;
50213;SDS011;36103;54.176;12.070;2022-10-26T02:31:08;1.73;;;1.30;;
50213;SDS011;36103;54.176;12.070;2022-10-26T02:32:13;1.20;;;1.10;;
50213;SDS011;36103;54.176;12.070;2022-10-26T02:33:14;1.40;;;1.20;;
50213;SDS011;36103;54.176;12.070;2022-10-26T02:34:17;1.40;;;1.10;;
50213;SDS011;36103;54.176;12.070;2022-10-26T02:35:21;2.07;;;1.30;;
50213;SDS011;36103;54.176;12.070;2022-10-26T02:36:24;1.40;;;1.30;;
50213;SDS011;36103;54.176;12.070;2022-10-26T02:37:26;1.70;;;1.60;;
50213;SDS011;36103;54.176;12.070;2022-10-26T02:38:29;2.60;;;1.40;;
50213;SDS011;36103;54.176;12.070;2022-10-26T02:39:31;1.37;;;1.00;;
50213;SDS011;36103;54.176;12.070;2022-10-26T02:40:34;1.67;;;1.10;;
50213;SDS011;36103;54.176;12.070;2022-10-26T02:41:35;2.30;;;1.23;;
50213;SDS011;36103;54.176;12.070;2022-10-26T02:42:37;1.43;;;1.33;;
50213;SDS011;36103;54.176;12.070;2022-10-26T02:43:40;1.67;;;1.33;;
50213;SDS011;36103;54.176;12.070;2022-10-26T02:44:48;2.63;;;1.23;;
50213;SDS011;36103;54.176;12.070;2022-10-26T02:45:51;1.30;;;1.20;;
50213;SDS011;36103;54.176;12.070;2022-10-26T02:46:56;2.27;;;1.37;;
50213;SDS011;36103;54.176;12.070;2022-10-26T02:47:58;1.27;;;1.10;;
50213;SDS011;36103;54.176;12.070;2022-10-26T02:49:00;2.03;;;1.33;;
50213;SDS011;36103;54.176;12.070;2022-10-26T02:50:01;1.60;;;1.13;;
50213;SDS011;36103;54.176;12.070;2022-10-26T02:51:03;1.30;;;1.20;;
50213;SDS011;36103;54.176;12.070;2022-10-26T02:52:10;1.57;;;1.30;;
50213;SDS011;36103;54.176;12.070;2022-10-26T02:53:15;1.47;;;1.20;;
50213;SDS011;36103;54.176;12.070;2022-10-26T02:54:19;1.30;;;1.20;;
50213;SDS011;36103;54.176;12.070;2022-10-26T02:55:26;1.90;;;1.53;;
50213;SDS011;36103;54.176;12.070;2022-10-26T02:56:28;1.60;;;1.33;;
50213;SDS011;36103;54.176;12.070;2022-10-26T02:57:34;1.63;;;1.40;;
50213;SDS011;36103;54.176;12.070;2022-10-26T02:58:39;1.20;;;1.10;;
50213;SDS011;36103;54.176;12.070;2022-10-26T02:59:43;1.53;;;1.43;;
50213;SDS011;36103;54.176;12.070;2022-10-26T03:00:46;1.00;;;1.00;;
50213;SDS011;36103;54.176;12.070;2022-10-26T03:01:48;1.27;;;1.07;;
50213;SDS011;36103;54.176;12.070;2022-10-26T03:02:50;1.63;;;1.40;;
50213;SDS011;36103;54.176;12.070;2022-10-26T03:03:56;1.20;;;1.10;;
50213;SDS011;36103;54.176;12.070;2022-10-26T03:05:02;2.10;;;1.43;;
50213;SDS011;36103;54.176;12.070;2022-10-26T03:06:06;1.97;;;1.17;;
50213;SDS011;36103;54.176;12.070;2022-10-26T03:07:07;1.40;;;1.27;;
50213;SDS011;36103;54.176;12.070;2022-10-26T03:08:08;1.40;;;1.00;;
50213;SDS011;36103;54.176;12.070;2022-10-26T03:09:09;1.63;;;1.17;;
50213;SDS011;36103;54.176;12.070;2022-10-26T03:10:10;1.30;;;0.97;;
50213;SDS011;36103;54.176;12.070;2022-10-26T03:11:11;1.37;;;1.10;;
50213;SDS011;36103;54.176;12.070;2022-10-26T03:12:12;1.20;;;1.07;;
50213;SDS011;36103;54.176;12.070;2022-10-26T03:13:13;1.30;;;1.20;;
50213;SDS011;36103;54.176;12.070;2022-10-26T03:14:15;1.77;;;1.20;;
50213;SDS011;36103;54.176;12.070;2022-10-26T03:15:15;1.30;;;1.20;;
50213;SDS011;36103;54.176;12.070;2022-10-26T03:16:17;1.93;;;1.43;;
50213;SDS011;36103;54.176;12.070;2022-10-26T03:17:17;1.27;;;1.17;;
50213;SDS011;36103;54.176;12.070;2022-10-26T03:18:19;1.93;;;1.17;;
50213;SDS011;36103;54.176;12.070;2022-10-26T03:19:21;1.30;;;1.10;;
50213;SDS011;36103;54.176;12.070;2022-10-26T03:20:22;1.73;;;1.00;;
50213;SDS011;36103;54.176;12.070;2022-10-26T03:21:23;1.30;;;1.13;;
50213;SDS011;36103;54.176;12.070;2022-10-26T03:22:24;2.57;;;1.27;;
50213;SDS011;36103;54.176;12.070;2022-10-26T03:23:25;2.07;;;1.10;;
50213;SDS011;36103;54.176;12.070;2022-10-26T03:24:27;2.03;;;1.30;;
50213;SDS011;36103;54.176;12.070;2022-10-26T03:25:28;1.43;;;1.27;;
50213;SDS011;36103;54.176;12.070;2022-10-26T03:26:30;1.37;;;1.10;;
50213;SDS011;36103;54.176;12.070;2022-10-26T03:27:30;1.30;;;1.20;;
50213;SDS011;36103;54.176;12.070;2022-10-26T03:28:31;1.57;;;1.30;;
50213;SDS011;36103;54.176;12.070;2022-10-26T03:29:32;1.03;;;0.83;;
50213;SDS011;36103;54.176;12.070;2022-10-26T03:30:33;2.07;;;1.30;;
50213;SDS011;36103;54.176;12.070;2022-10-26T03:31:34;1.20;;;1.10;;
50213;SDS011;36103;54.176;12.070;2022-10-26T03:32:35;2.50;;;1.50;;
50213;SDS011;36103;54.176;12.070;2022-10-26T03:33:36;3.30;;;1.30;;
50213;SDS011;36103;54.176;12.070;2022-10-26T03:34:38;0.97;;;0.93;;
50213;SDS011;36103;54.176;12.070;2022-10-26T03:35:39;1.40;;;1.30;;
50213;SDS011;36103;54.176;12.070;2022-10-26T03:36:40;1.60;;;1.00;;
50213;SDS011;36103;54.176;12.070;2022-10-26T03:37:42;1.30;;;1.20;;
50213;SDS011;36103;54.176;12.070;2022-10-26T03:38:42;3.43;;;1.17;;
50213;SDS011;36103;54.176;12.070;2022-10-26T03:39:44;1.63;;;1.20;;
50213;SDS011;36103;54.176;12.070;2022-10-26T03:40:44;1.17;;;1.00;;
50213;SDS011;36103;54.176;12.070;2022-10-26T03:41:47;1.70;;;1.10;;
50213;SDS011;36103;54.176;12.070;2022-10-26T03:42:48;1.70;;;1.37;;
50213;SDS011;36103;54.176;12.070;2022-10-26T03:43:49;1.20;;;1.10;;
50213;SDS011;36103;54.176;12.070;2022-10-26T03:44:49;1.30;;;1.20;;
50213;SDS011;36103;54.176;12.070;2022-10-26T03:45:51;1.20;;;1.00;;
50213;SDS011;36103;54.176;12.070;2022-10-26T03:46:51;1.27;;;1.00;;
50213;SDS011;36103;54.176;12.070;2022-10-26T03:47:53;1.63;;;1.10;;
50213;SDS011;36103;54.176;12.070;2022-10-26T03:48:53;2.03;;;1.13;;
50213;SDS011;36103;54.176;12.070;2022-10-26T03:49:56;1.97;;;1.10;;
50213;SDS011;36103;54.176;12.070;2022-10-26T03:50:57;1.30;;;1.20;;
50213;SDS011;36103;54.176;12.070;2022-10-26T03:51:59;1.30;;;0.90;;
50213;SDS011;36103;54.176;12.070;2022-10-26T03:52:59;1.40;;;1.20;;
50213;SDS011;36103;54.176;12.070;2022-10-26T03:54:01;1.10;;;1.00;;
50213;SDS011;36103;54.176;12.070;2022-10-26T03:55:02;1.30;;;1.20;;
50213;SDS011;36103;54.176;12.070;2022-10-26T03:56:04;1.20;;;1.10;;
50213;SDS011;36103;54.176;12.070;2022-10-26T03:57:05;1.50;;;1.17;;
50213;SDS011;36103;54.176;12.070;2022-10-26T03:58:07;1.10;;;1.00;;
50213;SDS011;36103;54.176;12.070;2022-10-26T03:59:08;1.33;;;1.20;;
50213;SDS011;36103;54.176;12.070;2022-10-26T04:00:09;1.27;;;1.17;;
50213;SDS011;36103;54.176;12.070;2022-10-26T04:01:15;1.50;;;1.30;;
50213;SDS011;36103;54.176;12.070;2022-10-26T04:02:16;1.87;;;1.17;;
50213;SDS011;36103;54.176;12.070;2022-10-26T04:03:16;1.47;;;1.00;;
50213;SDS011;36103;54.176;12.070;2022-10-26T04:04:18;1.47;;;1.00;;
50213;SDS011;36103;54.176;12.070;2022-10-26T04:05:20;1.47;;;1.20;;
50213;SDS011;36103;54.176;12.070;2022-10-26T04:06:21;1.97;;;1.10;;
50213;SDS011;36103;54.176;12.070;2022-10-26T04:07:22;1.33;;;1.07;;
50213;SDS011;36103;54.176;12.070;2022-10-26T04:08:23;1.93;;;1.10;;
50213;SDS011;36103;54.176;12.070;2022-10-26T04:09:24;1.37;;;0.90;;
50213;SDS011;36103;54.176;12.070;2022-10-26T04:10:25;1.10;;;1.00;;
50213;SDS011;36103;54.176;12.070;2022-10-26T04:11:26;1.20;;;1.10;;
50213;SDS011;36103;54.176;12.070;2022-10-26T04:12:28;1.40;;;1.17;;
50213;SDS011;36103;54.176;12.070;2022-10-26T04:13:28;1.20;;;1.10;;
50213;SDS011;36103;54.176;12.070;2022-10-26T04:14:30;1.87;;;1.20;;
50213;SDS011;36103;54.176;12.070;2022-10-26T04:15:30;1.00;;;0.90;;
50213;SDS011;36103;54.176;12.070;2022-10-26T04:16:31;1.30;;;0.90;;
50213;SDS011;36103;54.176;12.070;2022-10-26T04:17:32;1.17;;;1.07;;
50213;SDS011;36103;54.176;12.070;2022-10-26T04:18:33;1.27;;;1.10;;
50213;SDS011;36103;54.176;12.070;2022-10-26T04:19:34;1.10;;;1.00;;
50213;SDS011;36103;54.176;12.070;2022-10-26T04:20:37;1.03;;;1.00;;
50213;SDS011;36103;54.176;12.070;2022-10-26T04:21:40;0.87;;;0.87;;
50213;SDS011;36103;54.176;12.070;2022-10-26T04:22:41;1.00;;;0.90;;
50213;SDS011;36103;54.176;12.070;2022-10-26T04:23:42;1.10;;;1.00;;
50213;SDS011;36103;54.176;12.070;2022-10-26T04:24:43;1.20;;;1.10;;
50213;SDS011;36103;54.176;12.070;2022-10-26T04:25:44;1.03;;;0.93;;
50213;SDS011;36103;54.176;12.070;2022-10-26T04:26:45;1.20;;;1.10;;
50213;SDS011;36103;54.176;12.070;2022-10-26T04:27:46;1.00;;;0.90;;
50213;SDS011;36103;54.176;12.070;2022-10-26T04:28:47;1.40;;;1.10;;
50213;SDS011;36103;54.176;12.070;2022-10-26T04:29:48;1.20;;;1.00;;
50213;SDS011;36103;54.176;12.070;2022-10-26T04:30:49;1.50;;;1.10;;
50213;SDS011;36103;54.176;12.070;2022-10-26T04:31:50;1.53;;;1.13;;
50213;SDS011;36103;54.176;12.070;2022-10-26T04:32:50;1.10;;;1.00;;
50213;SDS011;36103;54.176;12.070;2022-10-26T04:33:52;1.03;;;0.93;;
50213;SDS011;36103;54.176;12.070;2022-10-26T04:34:52;1.33;;;1.00;;
50213;SDS011;36103;54.176;12.070;2022-10-26T04:35:58;1.23;;;1.00;;
50213;SDS011;36103;54.176;12.070;2022-10-26T04:37:00;1.10;;;1.00;;
50213;SDS011;36103;54.176;12.070;2022-10-26T04:38:02;0.90;;;0.90;;
50213;SDS011;36103;54.176;12.070;2022-10-26T04:39:03;1.23;;;1.13;;
50213;SDS011;36103;54.176;12.070;2022-10-26T04:40:05;1.33;;;1.10;;
50213;SDS011;36103;54.176;12.070;2022-10-26T04:41:06;1.10;;;1.00;;
50213;SDS011;36103;54.176;12.070;2022-10-26T04:42:07;0.87;;;0.87;;
50213;SDS011;36103;54.176;12.070;2022-10-26T04:43:07;1.13;;;0.90;;
50213;SDS011;36103;54.176;12.070;2022-10-26T04:44:09;0.87;;;0.77;;
50213;SDS011;36103;54.176;12.070;2022-10-26T04:45:10;1.10;;;1.00;;
50213;SDS011;36103;54.176;12.070;2022-10-26T04:46:11;1.17;;;1.00;;
50213;SDS011;36103;54.176;12.070;2022-10-26T04:47:13;0.90;;;0.90;;
50213;SDS011;36103;54.176;12.070;2022-10-26T04:48:14;1.13;;;1.00;;
50213;SDS011;36103;54.176;12.070;2022-10-26T04:49:15;1.00;;;0.90;;
50213;SDS011;36103;54.176;12.070;2022-10-26T04:50:16;1.00;;;1.00;;
50213;SDS011;36103;54.176;12.070;2022-10-26T04:51:19;1.47;;;1.00;;
50213;SDS011;36103;54.176;12.070;2022-10-26T04:52:20;1.10;;;1.00;;
50213;SDS011;36103;54.176;12.070;2022-10-26T04:53:21;1.07;;;0.93;;
50213;SDS011;36103;54.176;12.070;2022-10-26T04:54:22;1.27;;;1.00;;
50213;SDS011;36103;54.176;12.070;2022-10-26T04:55:23;1.67;;;1.17;;
50213;SDS011;36103;54.176;12.070;2022-10-26T04:56:24;1.10;;;0.90;;
50213;SDS011;36103;54.176;12.070;2022-10-26T04:57:24;1.63;;;1.00;;
50213;SDS011;36103;54.176;12.070;2022-10-26T04:58:26;2.57;;;1.10;;
50213;SDS011;36103;54.176;12.070;2022-10-26T04:59:27;1.47;;;1.17;;
50213;SDS011;36103;54.176;12.070;2022-10-26T05:00:28;2.90;;;1.00;;
50213;SDS011;36103;54.176;12.070;2022-10-26T05:01:29;1.00;;;0.90;;
50213;SDS011;36103;54.176;12.070;2022-10-26T05:02:31;1.23;;;0.90;;
50213;SDS011;36103;54.176;12.070;2022-10-26T05:03:31;0.97;;;0.87;;
50213;SDS011;36103;54.176;12.070;2022-10-26T05:04:33;1.50;;;1.10;;
50213;SDS011;36103;54.176;12.070;2022-10-26T05:05:34;2.33;;;1.20;;
50213;SDS011;36103;54.176;12.070;2022-10-26T05:06:37;2.63;;;1.13;;
50213;SDS011;36103;54.176;12.070;2022-10-26T05:07:38;1.37;;;0.90;;
50213;SDS011;36103;54.176;12.070;2022-10-26T05:08:39;0.90;;;0.90;;
50213;SDS011;36103;54.176;12.070;2022-10-26T05:09:40;1.40;;;1.00;;
50213;SDS011;36103;54.176;12.070;2022-10-26T05:10:40;0.80;;;0.80;;
50213;SDS011;36103;54.176;12.070;2022-10-26T05:11:42;1.27;;;1.00;;
50213;SDS011;36103;54.176;12.070;2022-10-26T05:12:43;1.57;;;1.10;;
50213;SDS011;36103;54.176;12.070;2022-10-26T05:13:50;0.77;;;0.77;;
50213;SDS011;36103;54.176;12.070;2022-10-26T05:14:51;1.23;;;1.07;;
50213;SDS011;36103;54.176;12.070;2022-10-26T05:15:52;0.77;;;0.77;;
50213;SDS011;36103;54.176;12.070;2022-10-26T05:16:53;1.47;;;1.20;;
50213;SDS011;36103;54.176;12.070;2022-10-26T05:17:55;1.00;;;0.90;;
50213;SDS011;36103;54.176;12.070;2022-10-26T05:18:56;2.93;;;1.00;;
50213;SDS011;36103;54.176;12.070;2022-10-26T05:19:58;0.73;;;0.70;;
50213;SDS011;36103;54.176;12.070;2022-10-26T05:20:59;0.80;;;0.80;;
50213;SDS011;36103;54.176;12.070;2022-10-26T05:22:02;1.30;;;1.10;;
50213;SDS011;36103;54.176;12.070;2022-10-26T05:23:03;0.97;;;0.87;;
50213;SDS011;36103;54.176;12.070;2022-10-26T05:24:06;1.87;;;1.10;;
50213;SDS011;36103;54.176;12.070;2022-10-26T05:25:07;1.63;;;1.00;;
50213;SDS011;36103;54.176;12.070;2022-10-26T05:26:08;2.40;;;1.00;;
50213;SDS011;36103;54.176;12.070;2022-10-26T05:27:09;1.77;;;1.07;;
50213;SDS011;36103;54.176;12.070;2022-10-26T05:28:11;1.70;;;1.10;;
50213;SDS011;36103;54.176;12.070;2022-10-26T05:29:12;2.57;;;1.20;;
50213;SDS011;36103;54.176;12.070;2022-10-26T05:30:13;2.30;;;1.13;;
50213;SDS011;36103;54.176;12.070;2022-10-26T05:31:15;3.80;;;1.00;;
50213;SDS011;36103;54.176;12.070;2022-10-26T05:32:15;2.80;;;1.20;;
50213;SDS011;36103;54.176;12.070;2022-10-26T05:33:17;2.60;;;1.50;;
50213;SDS011;36103;54.176;12.070;2022-10-26T05:34:17;0.97;;;0.90;;
50213;SDS011;36103;54.176;12.070;2022-10-26T05:35:18;2.93;;;1.30;;
50213;SDS011;36103;54.176;12.070;2022-10-26T05:36:19;3.13;;;1.20;;
50213;SDS011;36103;54.176;12.070;2022-10-26T05:37:22;2.23;;;1.03;;
50213;SDS011;36103;54.176;12.070;2022-10-26T05:38:22;2.57;;;1.03;;
50213;SDS011;36103;54.176;12.070;2022-10-26T05:39:23;1.83;;;1.30;;
50213;SDS011;36103;54.176;12.070;2022-10-26T05:40:25;1.60;;;1.13;;
50213;SDS011;36103;54.176;12.070;2022-10-26T05:41:25;1.40;;;1.10;;
50213;SDS011;36103;54.176;12.070;2022-10-26T05:42:27;4.37;;;1.00;;
50213;SDS011;36103;54.176;12.070;2022-10-26T05:43:28;2.63;;;1.20;;
50213;SDS011;36103;54.176;12.070;2022-10-26T05:44:29;7.37;;;1.30;;
50213;SDS011;36103;54.176;12.070;2022-10-26T05:45:30;5.60;;;1.33;;
50213;SDS011;36103;54.176;12.070;2022-10-26T05:46:31;2.10;;;1.13;;
50213;SDS011;36103;54.176;12.070;2022-10-26T05:47:36;2.77;;;1.37;;
50213;SDS011;36103;54.176;12.070;2022-10-26T05:48:37;2.27;;;1.10;;
50213;SDS011;36103;54.176;12.070;2022-10-26T05:49:38;3.77;;;1.13;;
50213;SDS011;36103;54.176;12.070;2022-10-26T05:50:38;4.13;;;1.43;;
50213;SDS011;36103;54.176;12.070;2022-10-26T05:51:40;2.57;;;1.50;;
50213;SDS011;36103;54.176;12.070;2022-10-26T05:52:43;4.17;;;1.33;;
50213;SDS011;36103;54.176;12.070;2022-10-26T05:53:44;6.37;;;1.77;;
50213;SDS011;36103;54.176;12.070;2022-10-26T05:54:46;7.13;;;1.60;;
50213;SDS011;36103;54.176;12.070;2022-10-26T05:55:46;3.73;;;1.83;;
50213;SDS011;36103;54.176;12.070;2022-10-26T05:56:49;4.17;;;1.60;;
50213;SDS011;36103;54.176;12.070;2022-10-26T05:57:50;4.40;;;1.77;;
50213;SDS011;36103;54.176;12.070;2022-10-26T05:58:51;1.73;;;1.40;;
50213;SDS011;36103;54.176;12.070;2022-10-26T05:59:52;6.47;;;1.90;;
50213;SDS011;36103;54.176;12.070;2022-10-26T06:01:01;3.67;;;1.70;;
50213;SDS011;36103;54.176;12.070;2022-10-26T06:02:08;3.37;;;1.90;;
50213;SDS011;36103;54.176;12.070;2022-10-26T06:03:17;2.90;;;1.57;;
50213;SDS011;36103;54.176;12.070;2022-10-26T06:04:28;3.00;;;1.57;;
50213;SDS011;36103;54.176;12.070;2022-10-26T06:05:36;5.33;;;1.33;;
50213;SDS011;36103;54.176;12.070;2022-10-26T06:06:52;3.90;;;1.40;;
50213;SDS011;36103;54.176;12.070;2022-10-26T06:07:56;3.13;;;1.60;;
50213;SDS011;36103;54.176;12.070;2022-10-26T06:08:57;4.23;;;1.60;;
50213;SDS011;36103;54.176;12.070;2022-10-26T06:09:59;6.30;;;1.90;;
50213;SDS011;36103;54.176;12.070;2022-10-26T06:11:00;6.87;;;1.70;;
50213;SDS011;36103;54.176;12.070;2022-10-26T06:12:02;4.80;;;1.60;;
50213;SDS011;36103;54.176;12.070;2022-10-26T06:13:03;4.03;;;1.73;;
50213;SDS011;36103;54.176;12.070;2022-10-26T06:14:05;3.10;;;1.57;;
50213;SDS011;36103;54.176;12.070;2022-10-26T06:15:08;2.57;;;1.40;;